<?xml version="1.0" encoding="UTF-8"?>
<gpx version="1.1" creator="GPSBabel - https://www.gpsbabel.org" xmlns="http://www.topografix.com/GPX/1/1" xmlns:xsi="http://www.w3.org/2001/XMLSchema-instance">
  <metadata>
    <name>Himmelreich</name>
    <link href="https://www.strava.com/activities/19964251438"/>
    <time>2026-09-02T16:43:01.812Z</time>
    <keywords>activities:19964251438</keywords>
    <bounds minlat="48.763713000" minlon="9.796468000" maxlat="48.801218000" maxlon="9.925505000"/>
  </metadata>
  <trk>
    <name>Himmelreich</name>
    <trkseg>
      <trkpt lat="48.799687000" lon="9.796468000">
        <ele>328.800</ele>
        <time>2026-08-30T10:27:10Z</time>
      </trkpt>
      <trkpt lat="48.799784000" lon="9.797210000">
        <ele>328.000</ele>
        <time>2026-08-30T10:29:38Z</time>
      </trkpt>
      <trkpt lat="48.799933000" lon="9.797669000">
        <ele>327.200</ele>
        <time>2026-08-30T10:29:47Z</time>
      </trkpt>
      <trkpt lat="48.799928000" lon="9.797923000">
        <ele>327.000</ele>
        <time>2026-08-30T10:29:52Z</time>
      </trkpt>
      <trkpt lat="48.799801000" lon="9.798172000">
        <ele>326.600</ele>
        <time>2026-08-30T10:29:58Z</time>
      </trkpt>
      <trkpt lat="48.799408000" lon="9.798591000">
        <ele>327.000</ele>
        <time>2026-08-30T10:30:13Z</time>
      </trkpt>
      <trkpt lat="48.799610000" lon="9.799487000">
        <ele>328.000</ele>
        <time>2026-08-30T10:30:30Z</time>
      </trkpt>
      <trkpt lat="48.799790000" lon="9.799928000">
        <ele>329.200</ele>
        <time>2026-08-30T10:30:39Z</time>
      </trkpt>
      <trkpt lat="48.799864000" lon="9.800438000">
        <ele>330.400</ele>
        <time>2026-08-30T10:30:50Z</time>
      </trkpt>
      <trkpt lat="48.800160000" lon="9.801342000">
        <ele>330.200</ele>
        <time>2026-08-30T10:31:08Z</time>
      </trkpt>
      <trkpt lat="48.800871000" lon="9.802662000">
        <ele>329.400</ele>
        <time>2026-08-30T10:31:35Z</time>
      </trkpt>
      <trkpt lat="48.800975000" lon="9.803264000">
        <ele>330.200</ele>
        <time>2026-08-30T10:31:46Z</time>
      </trkpt>
      <trkpt lat="48.800881000" lon="9.803504000">
        <ele>330.800</ele>
        <time>2026-08-30T10:31:51Z</time>
      </trkpt>
      <trkpt lat="48.800949000" lon="9.803737000">
        <ele>330.200</ele>
        <time>2026-08-30T10:31:55Z</time>
      </trkpt>
      <trkpt lat="48.800990000" lon="9.804462000">
        <ele>329.200</ele>
        <time>2026-08-30T10:32:03Z</time>
      </trkpt>
      <trkpt lat="48.800905000" lon="9.804485000">
        <ele>329.600</ele>
        <time>2026-08-30T10:32:09Z</time>
      </trkpt>
      <trkpt lat="48.800930000" lon="9.804594000">
        <ele>330.400</ele>
        <time>2026-08-30T10:32:12Z</time>
      </trkpt>
      <trkpt lat="48.801070000" lon="9.804667000">
        <ele>332.000</ele>
        <time>2026-08-30T10:32:19Z</time>
      </trkpt>
      <trkpt lat="48.801218000" lon="9.806139000">
        <ele>331.400</ele>
        <time>2026-08-30T10:32:39Z</time>
      </trkpt>
      <trkpt lat="48.800651000" lon="9.806397000">
        <ele>332.800</ele>
        <time>2026-08-30T10:32:57Z</time>
      </trkpt>
      <trkpt lat="48.800629000" lon="9.806937000">
        <ele>333.200</ele>
        <time>2026-08-30T10:33:06Z</time>
      </trkpt>
      <trkpt lat="48.800779000" lon="9.809468000">
        <ele>332.000</ele>
        <time>2026-08-30T10:33:43Z</time>
      </trkpt>
      <trkpt lat="48.800234000" lon="9.809615000">
        <ele>333.000</ele>
        <time>2026-08-30T10:33:57Z</time>
      </trkpt>
      <trkpt lat="48.800237000" lon="9.810114000">
        <ele>333.400</ele>
        <time>2026-08-30T10:34:05Z</time>
      </trkpt>
      <trkpt lat="48.800074000" lon="9.810465000">
        <ele>333.400</ele>
        <time>2026-08-30T10:34:11Z</time>
      </trkpt>
      <trkpt lat="48.800130000" lon="9.812217000">
        <ele>333.800</ele>
        <time>2026-08-30T10:34:42Z</time>
      </trkpt>
      <trkpt lat="48.800088000" lon="9.812313000">
        <ele>333.800</ele>
        <time>2026-08-30T10:34:44Z</time>
      </trkpt>
      <trkpt lat="48.799893000" lon="9.812388000">
        <ele>334.400</ele>
        <time>2026-08-30T10:34:50Z</time>
      </trkpt>
      <trkpt lat="48.799816000" lon="9.813718000">
        <ele>339.000</ele>
        <time>2026-08-30T10:35:18Z</time>
      </trkpt>
      <trkpt lat="48.799951000" lon="9.814642000">
        <ele>340.200</ele>
        <time>2026-08-30T10:35:36Z</time>
      </trkpt>
      <trkpt lat="48.799859000" lon="9.815041000">
        <ele>339.600</ele>
        <time>2026-08-30T10:35:42Z</time>
      </trkpt>
      <trkpt lat="48.799710000" lon="9.815322000">
        <ele>340.200</ele>
        <time>2026-08-30T10:35:48Z</time>
      </trkpt>
      <trkpt lat="48.799692000" lon="9.816152000">
        <ele>340.000</ele>
        <time>2026-08-30T10:36:00Z</time>
      </trkpt>
      <trkpt lat="48.799745000" lon="9.816828000">
        <ele>339.200</ele>
        <time>2026-08-30T10:36:08Z</time>
      </trkpt>
      <trkpt lat="48.799735000" lon="9.818298000">
        <ele>337.800</ele>
        <time>2026-08-30T10:36:26Z</time>
      </trkpt>
      <trkpt lat="48.799485000" lon="9.823859000">
        <ele>338.400</ele>
        <time>2026-08-30T10:37:38Z</time>
      </trkpt>
      <trkpt lat="48.799553000" lon="9.825190000">
        <ele>339.600</ele>
        <time>2026-08-30T10:37:56Z</time>
      </trkpt>
      <trkpt lat="48.799427000" lon="9.826899000">
        <ele>340.800</ele>
        <time>2026-08-30T10:38:20Z</time>
      </trkpt>
      <trkpt lat="48.799405000" lon="9.829351000">
        <ele>340.600</ele>
        <time>2026-08-30T10:38:52Z</time>
      </trkpt>
      <trkpt lat="48.799557000" lon="9.830724000">
        <ele>341.600</ele>
        <time>2026-08-30T10:39:10Z</time>
      </trkpt>
      <trkpt lat="48.799825000" lon="9.831844000">
        <ele>344.000</ele>
        <time>2026-08-30T10:39:31Z</time>
      </trkpt>
      <trkpt lat="48.799590000" lon="9.832231000">
        <ele>345.600</ele>
        <time>2026-08-30T10:39:44Z</time>
      </trkpt>
      <trkpt lat="48.799863000" lon="9.833357000">
        <ele>347.000</ele>
        <time>2026-08-30T10:40:10Z</time>
      </trkpt>
      <trkpt lat="48.799621000" lon="9.832425000">
        <ele>346.600</ele>
        <time>2026-08-30T10:40:42Z</time>
      </trkpt>
      <trkpt lat="48.799533000" lon="9.832350000">
        <ele>346.800</ele>
        <time>2026-08-30T10:40:45Z</time>
      </trkpt>
      <trkpt lat="48.799375000" lon="9.832387000">
        <ele>347.200</ele>
        <time>2026-08-30T10:40:51Z</time>
      </trkpt>
      <trkpt lat="48.798866000" lon="9.832953000">
        <ele>350.000</ele>
        <time>2026-08-30T10:41:12Z</time>
      </trkpt>
      <trkpt lat="48.798200000" lon="9.834018000">
        <ele>354.200</ele>
        <time>2026-08-30T10:41:42Z</time>
      </trkpt>
      <trkpt lat="48.797306000" lon="9.836949000">
        <ele>376.600</ele>
        <time>2026-08-30T10:43:33Z</time>
      </trkpt>
      <trkpt lat="48.796944000" lon="9.838514000">
        <ele>386.400</ele>
        <time>2026-08-30T10:44:26Z</time>
      </trkpt>
      <trkpt lat="48.796645000" lon="9.838892000">
        <ele>390.400</ele>
        <time>2026-08-30T10:44:46Z</time>
      </trkpt>
      <trkpt lat="48.796321000" lon="9.841532000">
        <ele>413.000</ele>
        <time>2026-08-30T10:46:32Z</time>
      </trkpt>
      <trkpt lat="48.796059000" lon="9.842190000">
        <ele>418.200</ele>
        <time>2026-08-30T10:46:59Z</time>
      </trkpt>
      <trkpt lat="48.795661000" lon="9.843888000">
        <ele>429.000</ele>
        <time>2026-08-30T10:47:59Z</time>
      </trkpt>
      <trkpt lat="48.795676000" lon="9.845317000">
        <ele>431.600</ele>
        <time>2026-08-30T10:48:28Z</time>
      </trkpt>
      <trkpt lat="48.795782000" lon="9.845481000">
        <ele>432.000</ele>
        <time>2026-08-30T10:48:35Z</time>
      </trkpt>
      <trkpt lat="48.796156000" lon="9.845405000">
        <ele>431.200</ele>
        <time>2026-08-30T10:48:48Z</time>
      </trkpt>
      <trkpt lat="48.796240000" lon="9.845469000">
        <ele>431.000</ele>
        <time>2026-08-30T10:48:51Z</time>
      </trkpt>
      <trkpt lat="48.796306000" lon="9.846179000">
        <ele>431.200</ele>
        <time>2026-08-30T10:49:03Z</time>
      </trkpt>
      <trkpt lat="48.797193000" lon="9.849729000">
        <ele>435.000</ele>
        <time>2026-08-30T10:50:06Z</time>
      </trkpt>
      <trkpt lat="48.797425000" lon="9.851577000">
        <ele>434.600</ele>
        <time>2026-08-30T10:50:34Z</time>
      </trkpt>
      <trkpt lat="48.797491000" lon="9.853569000">
        <ele>431.600</ele>
        <time>2026-08-30T10:51:00Z</time>
      </trkpt>
      <trkpt lat="48.797333000" lon="9.854898000">
        <ele>429.800</ele>
        <time>2026-08-30T10:51:16Z</time>
      </trkpt>
      <trkpt lat="48.797159000" lon="9.855637000">
        <ele>429.800</ele>
        <time>2026-08-30T10:51:26Z</time>
      </trkpt>
      <trkpt lat="48.797163000" lon="9.856192000">
        <ele>429.800</ele>
        <time>2026-08-30T10:51:34Z</time>
      </trkpt>
      <trkpt lat="48.797031000" lon="9.856378000">
        <ele>429.600</ele>
        <time>2026-08-30T10:51:38Z</time>
      </trkpt>
      <trkpt lat="48.796687000" lon="9.857251000">
        <ele>432.600</ele>
        <time>2026-08-30T10:51:56Z</time>
      </trkpt>
      <trkpt lat="48.796025000" lon="9.858178000">
        <ele>436.600</ele>
        <time>2026-08-30T10:52:25Z</time>
      </trkpt>
      <trkpt lat="48.795442000" lon="9.858728000">
        <ele>435.000</ele>
        <time>2026-08-30T10:52:42Z</time>
      </trkpt>
      <trkpt lat="48.794975000" lon="9.859022000">
        <ele>432.600</ele>
        <time>2026-08-30T10:52:50Z</time>
      </trkpt>
      <trkpt lat="48.793635000" lon="9.859597000">
        <ele>426.200</ele>
        <time>2026-08-30T10:53:12Z</time>
      </trkpt>
      <trkpt lat="48.793354000" lon="9.859884000">
        <ele>424.400</ele>
        <time>2026-08-30T10:53:20Z</time>
      </trkpt>
      <trkpt lat="48.793199000" lon="9.859815000">
        <ele>424.000</ele>
        <time>2026-08-30T10:53:24Z</time>
      </trkpt>
      <trkpt lat="48.792797000" lon="9.860026000">
        <ele>422.800</ele>
        <time>2026-08-30T10:53:32Z</time>
      </trkpt>
      <trkpt lat="48.791395000" lon="9.861154000">
        <ele>419.000</ele>
        <time>2026-08-30T10:54:04Z</time>
      </trkpt>
      <trkpt lat="48.790683000" lon="9.861465000">
        <ele>416.600</ele>
        <time>2026-08-30T10:54:18Z</time>
      </trkpt>
      <trkpt lat="48.790462000" lon="9.861637000">
        <ele>415.600</ele>
        <time>2026-08-30T10:54:22Z</time>
      </trkpt>
      <trkpt lat="48.790175000" lon="9.862027000">
        <ele>414.200</ele>
        <time>2026-08-30T10:54:28Z</time>
      </trkpt>
      <trkpt lat="48.789990000" lon="9.862502000">
        <ele>413.000</ele>
        <time>2026-08-30T10:54:34Z</time>
      </trkpt>
      <trkpt lat="48.789907000" lon="9.863429000">
        <ele>411.000</ele>
        <time>2026-08-30T10:54:44Z</time>
      </trkpt>
      <trkpt lat="48.790051000" lon="9.864710000">
        <ele>412.400</ele>
        <time>2026-08-30T10:55:02Z</time>
      </trkpt>
      <trkpt lat="48.790042000" lon="9.865515000">
        <ele>412.400</ele>
        <time>2026-08-30T10:55:12Z</time>
      </trkpt>
      <trkpt lat="48.789878000" lon="9.867275000">
        <ele>413.000</ele>
        <time>2026-08-30T10:55:34Z</time>
      </trkpt>
      <trkpt lat="48.789171000" lon="9.869770000">
        <ele>418.800</ele>
        <time>2026-08-30T10:56:17Z</time>
      </trkpt>
      <trkpt lat="48.789015000" lon="9.870054000">
        <ele>419.400</ele>
        <time>2026-08-30T10:56:24Z</time>
      </trkpt>
      <trkpt lat="48.788988000" lon="9.871955000">
        <ele>416.400</ele>
        <time>2026-08-30T10:56:46Z</time>
      </trkpt>
      <trkpt lat="48.789427000" lon="9.874263000">
        <ele>419.000</ele>
        <time>2026-08-30T10:57:18Z</time>
      </trkpt>
      <trkpt lat="48.789512000" lon="9.875553000">
        <ele>420.400</ele>
        <time>2026-08-30T10:57:38Z</time>
      </trkpt>
      <trkpt lat="48.789628000" lon="9.876064000">
        <ele>419.000</ele>
        <time>2026-08-30T10:57:44Z</time>
      </trkpt>
      <trkpt lat="48.789518000" lon="9.876767000">
        <ele>419.600</ele>
        <time>2026-08-30T10:57:54Z</time>
      </trkpt>
      <trkpt lat="48.788379000" lon="9.877204000">
        <ele>418.000</ele>
        <time>2026-08-30T10:58:20Z</time>
      </trkpt>
      <trkpt lat="48.788216000" lon="9.878576000">
        <ele>416.200</ele>
        <time>2026-08-30T10:58:38Z</time>
      </trkpt>
      <trkpt lat="48.788280000" lon="9.878965000">
        <ele>415.600</ele>
        <time>2026-08-30T10:58:44Z</time>
      </trkpt>
      <trkpt lat="48.788105000" lon="9.879491000">
        <ele>414.800</ele>
        <time>2026-08-30T10:58:52Z</time>
      </trkpt>
      <trkpt lat="48.787917000" lon="9.879703000">
        <ele>414.800</ele>
        <time>2026-08-30T10:58:58Z</time>
      </trkpt>
      <trkpt lat="48.787644000" lon="9.881195000">
        <ele>417.200</ele>
        <time>2026-08-30T10:59:20Z</time>
      </trkpt>
      <trkpt lat="48.787342000" lon="9.883457000">
        <ele>422.200</ele>
        <time>2026-08-30T10:59:56Z</time>
      </trkpt>
      <trkpt lat="48.787181000" lon="9.885401000">
        <ele>426.800</ele>
        <time>2026-08-30T11:00:30Z</time>
      </trkpt>
      <trkpt lat="48.787187000" lon="9.886234000">
        <ele>428.600</ele>
        <time>2026-08-30T11:00:45Z</time>
      </trkpt>
      <trkpt lat="48.787245000" lon="9.886610000">
        <ele>429.400</ele>
        <time>2026-08-30T11:00:52Z</time>
      </trkpt>
      <trkpt lat="48.787570000" lon="9.887682000">
        <ele>430.800</ele>
        <time>2026-08-30T11:01:13Z</time>
      </trkpt>
      <trkpt lat="48.787441000" lon="9.888155000">
        <ele>431.000</ele>
        <time>2026-08-30T11:01:27Z</time>
      </trkpt>
      <trkpt lat="48.787235000" lon="9.888562000">
        <ele>433.400</ele>
        <time>2026-08-30T11:01:42Z</time>
      </trkpt>
      <trkpt lat="48.786809000" lon="9.888889000">
        <ele>436.000</ele>
        <time>2026-08-30T11:02:01Z</time>
      </trkpt>
      <trkpt lat="48.786378000" lon="9.889393000">
        <ele>437.600</ele>
        <time>2026-08-30T11:02:19Z</time>
      </trkpt>
      <trkpt lat="48.786029000" lon="9.890183000">
        <ele>440.200</ele>
        <time>2026-08-30T11:02:40Z</time>
      </trkpt>
      <trkpt lat="48.785777000" lon="9.890593000">
        <ele>441.800</ele>
        <time>2026-08-30T11:02:52Z</time>
      </trkpt>
      <trkpt lat="48.784792000" lon="9.891455000">
        <ele>446.200</ele>
        <time>2026-08-30T11:03:31Z</time>
      </trkpt>
      <trkpt lat="48.784289000" lon="9.891739000">
        <ele>447.400</ele>
        <time>2026-08-30T11:03:49Z</time>
      </trkpt>
      <trkpt lat="48.783182000" lon="9.893591000">
        <ele>454.400</ele>
        <time>2026-08-30T11:04:46Z</time>
      </trkpt>
      <trkpt lat="48.782883000" lon="9.893876000">
        <ele>456.400</ele>
        <time>2026-08-30T11:04:59Z</time>
      </trkpt>
      <trkpt lat="48.781785000" lon="9.894098000">
        <ele>462.000</ele>
        <time>2026-08-30T11:05:41Z</time>
      </trkpt>
      <trkpt lat="48.781407000" lon="9.894378000">
        <ele>464.000</ele>
        <time>2026-08-30T11:05:56Z</time>
      </trkpt>
      <trkpt lat="48.781095000" lon="9.894772000">
        <ele>466.000</ele>
        <time>2026-08-30T11:06:11Z</time>
      </trkpt>
      <trkpt lat="48.780326000" lon="9.895470000">
        <ele>469.200</ele>
        <time>2026-08-30T11:06:41Z</time>
      </trkpt>
      <trkpt lat="48.780022000" lon="9.895568000">
        <ele>469.600</ele>
        <time>2026-08-30T11:06:49Z</time>
      </trkpt>
      <trkpt lat="48.779347000" lon="9.895603000">
        <ele>473.800</ele>
        <time>2026-08-30T11:07:13Z</time>
      </trkpt>
      <trkpt lat="48.777717000" lon="9.896206000">
        <ele>492.600</ele>
        <time>2026-08-30T11:08:45Z</time>
      </trkpt>
      <trkpt lat="48.777288000" lon="9.896475000">
        <ele>494.600</ele>
        <time>2026-08-30T11:09:04Z</time>
      </trkpt>
      <trkpt lat="48.776330000" lon="9.896645000">
        <ele>494.400</ele>
        <time>2026-08-30T11:09:30Z</time>
      </trkpt>
      <trkpt lat="48.776091000" lon="9.896805000">
        <ele>495.200</ele>
        <time>2026-08-30T11:09:37Z</time>
      </trkpt>
      <trkpt lat="48.774876000" lon="9.898181000">
        <ele>512.000</ele>
        <time>2026-08-30T11:11:02Z</time>
      </trkpt>
      <trkpt lat="48.774562000" lon="9.898738000">
        <ele>518.600</ele>
        <time>2026-08-30T11:11:35Z</time>
      </trkpt>
      <trkpt lat="48.773722000" lon="9.899831000">
        <ele>532.200</ele>
        <time>2026-08-30T11:12:50Z</time>
      </trkpt>
      <trkpt lat="48.773007000" lon="9.901234000">
        <ele>544.600</ele>
        <time>2026-08-30T11:14:03Z</time>
      </trkpt>
      <trkpt lat="48.772196000" lon="9.902385000">
        <ele>555.000</ele>
        <time>2026-08-30T11:15:09Z</time>
      </trkpt>
      <trkpt lat="48.771941000" lon="9.902628000">
        <ele>559.000</ele>
        <time>2026-08-30T11:15:29Z</time>
      </trkpt>
      <trkpt lat="48.771366000" lon="9.903761000">
        <ele>574.600</ele>
        <time>2026-08-30T11:16:42Z</time>
      </trkpt>
      <trkpt lat="48.770418000" lon="9.904945000">
        <ele>594.600</ele>
        <time>2026-08-30T11:18:20Z</time>
      </trkpt>
      <trkpt lat="48.769913000" lon="9.905688000">
        <ele>607.200</ele>
        <time>2026-08-30T11:19:26Z</time>
      </trkpt>
      <trkpt lat="48.769667000" lon="9.906295000">
        <ele>615.600</ele>
        <time>2026-08-30T11:20:05Z</time>
      </trkpt>
      <trkpt lat="48.769583000" lon="9.906755000">
        <ele>621.800</ele>
        <time>2026-08-30T11:20:32Z</time>
      </trkpt>
      <trkpt lat="48.769356000" lon="9.907325000">
        <ele>630.800</ele>
        <time>2026-08-30T11:21:10Z</time>
      </trkpt>
      <trkpt lat="48.769092000" lon="9.907755000">
        <ele>636.600</ele>
        <time>2026-08-30T11:21:43Z</time>
      </trkpt>
      <trkpt lat="48.769149000" lon="9.907846000">
        <ele>637.000</ele>
        <time>2026-08-30T11:21:49Z</time>
      </trkpt>
      <trkpt lat="48.769629000" lon="9.907415000">
        <ele>637.000</ele>
        <time>2026-08-30T11:22:08Z</time>
      </trkpt>
      <trkpt lat="48.769888000" lon="9.907404000">
        <ele>638.600</ele>
        <time>2026-08-30T11:22:19Z</time>
      </trkpt>
      <trkpt lat="48.770296000" lon="9.907583000">
        <ele>642.800</ele>
        <time>2026-08-30T11:22:42Z</time>
      </trkpt>
      <trkpt lat="48.770829000" lon="9.907635000">
        <ele>647.800</ele>
        <time>2026-08-30T11:23:12Z</time>
      </trkpt>
      <trkpt lat="48.770963000" lon="9.907739000">
        <ele>648.800</ele>
        <time>2026-08-30T11:23:20Z</time>
      </trkpt>
      <trkpt lat="48.771088000" lon="9.907588000">
        <ele>649.800</ele>
        <time>2026-08-30T11:23:28Z</time>
      </trkpt>
      <trkpt lat="48.771066000" lon="9.907469000">
        <ele>650.200</ele>
        <time>2026-08-30T11:23:32Z</time>
      </trkpt>
      <trkpt lat="48.770638000" lon="9.906956000">
        <ele>654.000</ele>
        <time>2026-08-30T11:24:01Z</time>
      </trkpt>
      <trkpt lat="48.770564000" lon="9.906726000">
        <ele>655.600</ele>
        <time>2026-08-30T11:24:11Z</time>
      </trkpt>
      <trkpt lat="48.770636000" lon="9.906529000">
        <ele>657.200</ele>
        <time>2026-08-30T11:24:20Z</time>
      </trkpt>
      <trkpt lat="48.770867000" lon="9.906338000">
        <ele>659.800</ele>
        <time>2026-08-30T11:24:36Z</time>
      </trkpt>
      <trkpt lat="48.771561000" lon="9.906155000">
        <ele>666.000</ele>
        <time>2026-08-30T11:25:13Z</time>
      </trkpt>
      <trkpt lat="48.771894000" lon="9.906200000">
        <ele>666.600</ele>
        <time>2026-08-30T11:25:27Z</time>
      </trkpt>
      <trkpt lat="48.771926000" lon="9.905974000">
        <ele>666.200</ele>
        <time>2026-08-30T11:25:33Z</time>
      </trkpt>
      <trkpt lat="48.772317000" lon="9.905807000">
        <ele>667.000</ele>
        <time>2026-08-30T11:25:56Z</time>
      </trkpt>
      <trkpt lat="48.772439000" lon="9.905678000">
        <ele>666.400</ele>
        <time>2026-08-30T11:26:09Z</time>
      </trkpt>
      <trkpt lat="48.772813000" lon="9.905542000">
        <ele>662.600</ele>
        <time>2026-08-30T11:26:17Z</time>
      </trkpt>
      <trkpt lat="48.774451000" lon="9.904546000">
        <ele>655.600</ele>
        <time>2026-08-30T11:27:06Z</time>
      </trkpt>
      <trkpt lat="48.774873000" lon="9.904136000">
        <ele>652.200</ele>
        <time>2026-08-30T11:27:18Z</time>
      </trkpt>
      <trkpt lat="48.776310000" lon="9.903203000">
        <ele>647.600</ele>
        <time>2026-08-30T11:29:12Z</time>
      </trkpt>
      <trkpt lat="48.776852000" lon="9.902975000">
        <ele>654.800</ele>
        <time>2026-08-30T11:29:46Z</time>
      </trkpt>
      <trkpt lat="48.777439000" lon="9.902460000">
        <ele>637.600</ele>
        <time>2026-08-30T11:30:31Z</time>
      </trkpt>
      <trkpt lat="48.777597000" lon="9.902184000">
        <ele>635.600</ele>
        <time>2026-08-30T11:30:55Z</time>
      </trkpt>
      <trkpt lat="48.777387000" lon="9.902281000">
        <ele>629.200</ele>
        <time>2026-08-30T11:31:34Z</time>
      </trkpt>
      <trkpt lat="48.777427000" lon="9.902034000">
        <ele>624.600</ele>
        <time>2026-08-30T11:31:57Z</time>
      </trkpt>
      <trkpt lat="48.777540000" lon="9.901884000">
        <ele>623.800</ele>
        <time>2026-08-30T11:32:05Z</time>
      </trkpt>
      <trkpt lat="48.777847000" lon="9.901938000">
        <ele>627.000</ele>
        <time>2026-08-30T11:32:29Z</time>
      </trkpt>
      <trkpt lat="48.778069000" lon="9.902081000">
        <ele>629.200</ele>
        <time>2026-08-30T11:32:43Z</time>
      </trkpt>
      <trkpt lat="48.778979000" lon="9.903098000">
        <ele>642.600</ele>
        <time>2026-08-30T11:33:50Z</time>
      </trkpt>
      <trkpt lat="48.779243000" lon="9.903548000">
        <ele>646.600</ele>
        <time>2026-08-30T11:34:15Z</time>
      </trkpt>
      <trkpt lat="48.779620000" lon="9.904731000">
        <ele>656.000</ele>
        <time>2026-08-30T11:35:11Z</time>
      </trkpt>
      <trkpt lat="48.779835000" lon="9.905988000">
        <ele>666.800</ele>
        <time>2026-08-30T11:36:12Z</time>
      </trkpt>
      <trkpt lat="48.779992000" lon="9.906406000">
        <ele>670.800</ele>
        <time>2026-08-30T11:36:34Z</time>
      </trkpt>
      <trkpt lat="48.780257000" lon="9.906829000">
        <ele>675.000</ele>
        <time>2026-08-30T11:37:00Z</time>
      </trkpt>
      <trkpt lat="48.780529000" lon="9.908071000">
        <ele>686.400</ele>
        <time>2026-08-30T11:38:02Z</time>
      </trkpt>
      <trkpt lat="48.780685000" lon="9.908318000">
        <ele>689.400</ele>
        <time>2026-08-30T11:38:18Z</time>
      </trkpt>
      <trkpt lat="48.781192000" lon="9.908716000">
        <ele>696.200</ele>
        <time>2026-08-30T11:38:56Z</time>
      </trkpt>
      <trkpt lat="48.781305000" lon="9.909044000">
        <ele>699.200</ele>
        <time>2026-08-30T11:39:13Z</time>
      </trkpt>
      <trkpt lat="48.781167000" lon="9.909972000">
        <ele>707.800</ele>
        <time>2026-08-30T11:39:59Z</time>
      </trkpt>
      <trkpt lat="48.780944000" lon="9.910331000">
        <ele>711.800</ele>
        <time>2026-08-30T11:40:22Z</time>
      </trkpt>
      <trkpt lat="48.780739000" lon="9.911116000">
        <ele>718.600</ele>
        <time>2026-08-30T11:41:02Z</time>
      </trkpt>
      <trkpt lat="48.780527000" lon="9.911319000">
        <ele>720.600</ele>
        <time>2026-08-30T11:41:20Z</time>
      </trkpt>
      <trkpt lat="48.780465000" lon="9.911544000">
        <ele>720.800</ele>
        <time>2026-08-30T11:41:28Z</time>
      </trkpt>
      <trkpt lat="48.780515000" lon="9.911992000">
        <ele>721.200</ele>
        <time>2026-08-30T11:41:40Z</time>
      </trkpt>
      <trkpt lat="48.780400000" lon="9.912477000">
        <ele>721.200</ele>
        <time>2026-08-30T11:41:52Z</time>
      </trkpt>
      <trkpt lat="48.780394000" lon="9.913452000">
        <ele>723.000</ele>
        <time>2026-08-30T11:42:26Z</time>
      </trkpt>
      <trkpt lat="48.780122000" lon="9.914685000">
        <ele>718.200</ele>
        <time>2026-08-30T11:42:52Z</time>
      </trkpt>
      <trkpt lat="48.779938000" lon="9.915247000">
        <ele>721.200</ele>
        <time>2026-08-30T11:43:14Z</time>
      </trkpt>
      <trkpt lat="48.779977000" lon="9.916551000">
        <ele>721.800</ele>
        <time>2026-08-30T11:43:57Z</time>
      </trkpt>
      <trkpt lat="48.780088000" lon="9.917305000">
        <ele>716.800</ele>
        <time>2026-08-30T11:44:23Z</time>
      </trkpt>
      <trkpt lat="48.780345000" lon="9.918118000">
        <ele>706.800</ele>
        <time>2026-08-30T11:44:43Z</time>
      </trkpt>
      <trkpt lat="48.780566000" lon="9.918327000">
        <ele>703.200</ele>
        <time>2026-08-30T11:44:53Z</time>
      </trkpt>
      <trkpt lat="48.781670000" lon="9.918611000">
        <ele>696.000</ele>
        <time>2026-08-30T11:45:23Z</time>
      </trkpt>
      <trkpt lat="48.782488000" lon="9.919841000">
        <ele>688.000</ele>
        <time>2026-08-30T11:46:04Z</time>
      </trkpt>
      <trkpt lat="48.782567000" lon="9.919876000">
        <ele>685.800</ele>
        <time>2026-08-30T11:46:12Z</time>
      </trkpt>
      <trkpt lat="48.782603000" lon="9.920118000">
        <ele>684.800</ele>
        <time>2026-08-30T11:46:18Z</time>
      </trkpt>
      <trkpt lat="48.782799000" lon="9.920427000">
        <ele>684.000</ele>
        <time>2026-08-30T11:46:28Z</time>
      </trkpt>
      <trkpt lat="48.783037000" lon="9.921109000">
        <ele>687.800</ele>
        <time>2026-08-30T11:46:53Z</time>
      </trkpt>
      <trkpt lat="48.783131000" lon="9.921576000">
        <ele>690.200</ele>
        <time>2026-08-30T11:47:13Z</time>
      </trkpt>
      <trkpt lat="48.783175000" lon="9.922453000">
        <ele>690.600</ele>
        <time>2026-08-30T11:47:46Z</time>
      </trkpt>
      <trkpt lat="48.783331000" lon="9.922500000">
        <ele>686.800</ele>
        <time>2026-08-30T11:48:19Z</time>
      </trkpt>
      <trkpt lat="48.783445000" lon="9.922347000">
        <ele>684.400</ele>
        <time>2026-08-30T11:48:25Z</time>
      </trkpt>
      <trkpt lat="48.783724000" lon="9.921551000">
        <ele>671.600</ele>
        <time>2026-08-30T11:48:49Z</time>
      </trkpt>
      <trkpt lat="48.783837000" lon="9.922155000">
        <ele>663.200</ele>
        <time>2026-08-30T11:49:23Z</time>
      </trkpt>
      <trkpt lat="48.783846000" lon="9.922893000">
        <ele>653.000</ele>
        <time>2026-08-30T11:49:42Z</time>
      </trkpt>
      <trkpt lat="48.783290000" lon="9.923454000">
        <ele>638.600</ele>
        <time>2026-08-30T11:50:08Z</time>
      </trkpt>
      <trkpt lat="48.783340000" lon="9.923373000">
        <ele>639.200</ele>
        <time>2026-08-30T11:53:42Z</time>
      </trkpt>
      <trkpt lat="48.783292000" lon="9.923467000">
        <ele>640.000</ele>
        <time>2026-08-30T11:54:03Z</time>
      </trkpt>
      <trkpt lat="48.783129000" lon="9.923505000">
        <ele>637.200</ele>
        <time>2026-08-30T11:54:11Z</time>
      </trkpt>
      <trkpt lat="48.782998000" lon="9.923650000">
        <ele>634.200</ele>
        <time>2026-08-30T11:54:38Z</time>
      </trkpt>
      <trkpt lat="48.782655000" lon="9.923746000">
        <ele>628.600</ele>
        <time>2026-08-30T11:55:27Z</time>
      </trkpt>
      <trkpt lat="48.782342000" lon="9.923720000">
        <ele>619.000</ele>
        <time>2026-08-30T11:56:23Z</time>
      </trkpt>
      <trkpt lat="48.782294000" lon="9.923813000">
        <ele>617.000</ele>
        <time>2026-08-30T11:56:26Z</time>
      </trkpt>
      <trkpt lat="48.782433000" lon="9.924125000">
        <ele>613.600</ele>
        <time>2026-08-30T11:56:35Z</time>
      </trkpt>
      <trkpt lat="48.782781000" lon="9.924217000">
        <ele>611.400</ele>
        <time>2026-08-30T11:56:47Z</time>
      </trkpt>
      <trkpt lat="48.782910000" lon="9.924519000">
        <ele>607.000</ele>
        <time>2026-08-30T11:56:58Z</time>
      </trkpt>
      <trkpt lat="48.783440000" lon="9.925175000">
        <ele>592.000</ele>
        <time>2026-08-30T11:57:18Z</time>
      </trkpt>
      <trkpt lat="48.783354000" lon="9.925395000">
        <ele>585.400</ele>
        <time>2026-08-30T11:57:28Z</time>
      </trkpt>
      <trkpt lat="48.782622000" lon="9.925505000">
        <ele>572.800</ele>
        <time>2026-08-30T11:57:51Z</time>
      </trkpt>
      <trkpt lat="48.782366000" lon="9.925299000">
        <ele>569.000</ele>
        <time>2026-08-30T11:58:00Z</time>
      </trkpt>
      <trkpt lat="48.782027000" lon="9.925218000">
        <ele>564.400</ele>
        <time>2026-08-30T11:58:11Z</time>
      </trkpt>
      <trkpt lat="48.781207000" lon="9.924571000">
        <ele>545.600</ele>
        <time>2026-08-30T11:58:36Z</time>
      </trkpt>
      <trkpt lat="48.780803000" lon="9.923825000">
        <ele>541.800</ele>
        <time>2026-08-30T11:58:53Z</time>
      </trkpt>
      <trkpt lat="48.780540000" lon="9.923025000">
        <ele>544.200</ele>
        <time>2026-08-30T11:59:21Z</time>
      </trkpt>
      <trkpt lat="48.780386000" lon="9.922935000">
        <ele>544.000</ele>
        <time>2026-08-30T11:59:29Z</time>
      </trkpt>
      <trkpt lat="48.780204000" lon="9.922962000">
        <ele>541.800</ele>
        <time>2026-08-30T11:59:35Z</time>
      </trkpt>
      <trkpt lat="48.779386000" lon="9.922204000">
        <ele>538.400</ele>
        <time>2026-08-30T12:00:03Z</time>
      </trkpt>
      <trkpt lat="48.778606000" lon="9.920903000">
        <ele>539.800</ele>
        <time>2026-08-30T12:00:38Z</time>
      </trkpt>
      <trkpt lat="48.778282000" lon="9.920529000">
        <ele>538.000</ele>
        <time>2026-08-30T12:00:51Z</time>
      </trkpt>
      <trkpt lat="48.777981000" lon="9.919976000">
        <ele>530.800</ele>
        <time>2026-08-30T12:02:58Z</time>
      </trkpt>
      <trkpt lat="48.778016000" lon="9.919876000">
        <ele>531.000</ele>
        <time>2026-08-30T12:03:02Z</time>
      </trkpt>
      <trkpt lat="48.777861000" lon="9.919348000">
        <ele>537.800</ele>
        <time>2026-08-30T12:03:38Z</time>
      </trkpt>
      <trkpt lat="48.777677000" lon="9.919100000">
        <ele>541.400</ele>
        <time>2026-08-30T12:03:58Z</time>
      </trkpt>
      <trkpt lat="48.777493000" lon="9.918574000">
        <ele>541.800</ele>
        <time>2026-08-30T12:04:19Z</time>
      </trkpt>
      <trkpt lat="48.777363000" lon="9.917453000">
        <ele>546.200</ele>
        <time>2026-08-30T12:04:59Z</time>
      </trkpt>
      <trkpt lat="48.777462000" lon="9.916479000">
        <ele>556.800</ele>
        <time>2026-08-30T12:05:47Z</time>
      </trkpt>
      <trkpt lat="48.777441000" lon="9.914834000">
        <ele>560.200</ele>
        <time>2026-08-30T12:06:39Z</time>
      </trkpt>
      <trkpt lat="48.777624000" lon="9.913288000">
        <ele>573.000</ele>
        <time>2026-08-30T12:07:44Z</time>
      </trkpt>
      <trkpt lat="48.777612000" lon="9.912433000">
        <ele>581.200</ele>
        <time>2026-08-30T12:08:26Z</time>
      </trkpt>
      <trkpt lat="48.777342000" lon="9.910263000">
        <ele>587.000</ele>
        <time>2026-08-30T12:09:26Z</time>
      </trkpt>
      <trkpt lat="48.777401000" lon="9.909677000">
        <ele>592.200</ele>
        <time>2026-08-30T12:09:55Z</time>
      </trkpt>
      <trkpt lat="48.777393000" lon="9.907071000">
        <ele>621.800</ele>
        <time>2026-08-30T12:12:29Z</time>
      </trkpt>
      <trkpt lat="48.777243000" lon="9.906981000">
        <ele>624.200</ele>
        <time>2026-08-30T12:12:42Z</time>
      </trkpt>
      <trkpt lat="48.776594000" lon="9.907610000">
        <ele>633.200</ele>
        <time>2026-08-30T12:13:39Z</time>
      </trkpt>
      <trkpt lat="48.776525000" lon="9.907557000">
        <ele>634.400</ele>
        <time>2026-08-30T12:13:45Z</time>
      </trkpt>
      <trkpt lat="48.776551000" lon="9.907199000">
        <ele>637.600</ele>
        <time>2026-08-30T12:14:04Z</time>
      </trkpt>
      <trkpt lat="48.776884000" lon="9.906227000">
        <ele>643.400</ele>
        <time>2026-08-30T12:14:50Z</time>
      </trkpt>
      <trkpt lat="48.777185000" lon="9.905820000">
        <ele>644.800</ele>
        <time>2026-08-30T12:15:14Z</time>
      </trkpt>
      <trkpt lat="48.777332000" lon="9.905734000">
        <ele>645.000</ele>
        <time>2026-08-30T12:15:43Z</time>
      </trkpt>
      <trkpt lat="48.777290000" lon="9.904936000">
        <ele>653.200</ele>
        <time>2026-08-30T12:16:26Z</time>
      </trkpt>
      <trkpt lat="48.777038000" lon="9.904987000">
        <ele>653.600</ele>
        <time>2026-08-30T12:16:38Z</time>
      </trkpt>
      <trkpt lat="48.776824000" lon="9.905341000">
        <ele>655.400</ele>
        <time>2026-08-30T12:16:53Z</time>
      </trkpt>
      <trkpt lat="48.776607000" lon="9.905513000">
        <ele>656.600</ele>
        <time>2026-08-30T12:17:04Z</time>
      </trkpt>
      <trkpt lat="48.775908000" lon="9.906508000">
        <ele>662.200</ele>
        <time>2026-08-30T12:17:45Z</time>
      </trkpt>
      <trkpt lat="48.774568000" lon="9.907309000">
        <ele>664.000</ele>
        <time>2026-08-30T12:18:29Z</time>
      </trkpt>
      <trkpt lat="48.773863000" lon="9.908351000">
        <ele>666.000</ele>
        <time>2026-08-30T12:19:10Z</time>
      </trkpt>
      <trkpt lat="48.773550000" lon="9.908401000">
        <ele>666.800</ele>
        <time>2026-08-30T12:19:21Z</time>
      </trkpt>
      <trkpt lat="48.772493000" lon="9.908080000">
        <ele>668.400</ele>
        <time>2026-08-30T12:19:54Z</time>
      </trkpt>
      <trkpt lat="48.772169000" lon="9.907883000">
        <ele>669.400</ele>
        <time>2026-08-30T12:20:06Z</time>
      </trkpt>
      <trkpt lat="48.771609000" lon="9.906888000">
        <ele>668.400</ele>
        <time>2026-08-30T12:20:29Z</time>
      </trkpt>
      <trkpt lat="48.771466000" lon="9.906307000">
        <ele>670.000</ele>
        <time>2026-08-30T12:20:45Z</time>
      </trkpt>
      <trkpt lat="48.771482000" lon="9.906182000">
        <ele>670.200</ele>
        <time>2026-08-30T12:20:50Z</time>
      </trkpt>
      <trkpt lat="48.771553000" lon="9.906147000">
        <ele>670.800</ele>
        <time>2026-08-30T12:20:56Z</time>
      </trkpt>
      <trkpt lat="48.771057000" lon="9.906231000">
        <ele>667.800</ele>
        <time>2026-08-30T12:21:15Z</time>
      </trkpt>
      <trkpt lat="48.770476000" lon="9.906642000">
        <ele>662.000</ele>
        <time>2026-08-30T12:21:31Z</time>
      </trkpt>
      <trkpt lat="48.770286000" lon="9.906888000">
        <ele>660.800</ele>
        <time>2026-08-30T12:21:41Z</time>
      </trkpt>
      <trkpt lat="48.769906000" lon="9.907157000">
        <ele>648.200</ele>
        <time>2026-08-30T12:21:59Z</time>
      </trkpt>
      <trkpt lat="48.769732000" lon="9.907191000">
        <ele>644.000</ele>
        <time>2026-08-30T12:22:05Z</time>
      </trkpt>
      <trkpt lat="48.769605000" lon="9.907392000">
        <ele>641.600</ele>
        <time>2026-08-30T12:22:10Z</time>
      </trkpt>
      <trkpt lat="48.769106000" lon="9.907828000">
        <ele>640.200</ele>
        <time>2026-08-30T12:22:26Z</time>
      </trkpt>
      <trkpt lat="48.769018000" lon="9.907798000">
        <ele>640.400</ele>
        <time>2026-08-30T12:22:30Z</time>
      </trkpt>
      <trkpt lat="48.768667000" lon="9.908111000">
        <ele>646.200</ele>
        <time>2026-08-30T12:22:57Z</time>
      </trkpt>
      <trkpt lat="48.768493000" lon="9.908497000">
        <ele>652.000</ele>
        <time>2026-08-30T12:23:24Z</time>
      </trkpt>
      <trkpt lat="48.768077000" lon="9.909865000">
        <ele>666.800</ele>
        <time>2026-08-30T12:24:45Z</time>
      </trkpt>
      <trkpt lat="48.766540000" lon="9.911620000">
        <ele>689.600</ele>
        <time>2026-08-30T12:26:56Z</time>
      </trkpt>
      <trkpt lat="48.766256000" lon="9.912196000">
        <ele>698.000</ele>
        <time>2026-08-30T12:27:35Z</time>
      </trkpt>
      <trkpt lat="48.765842000" lon="9.913387000">
        <ele>711.400</ele>
        <time>2026-08-30T12:28:49Z</time>
      </trkpt>
      <trkpt lat="48.765670000" lon="9.914648000">
        <ele>727.200</ele>
        <time>2026-08-30T12:30:11Z</time>
      </trkpt>
      <trkpt lat="48.765504000" lon="9.915182000">
        <ele>736.000</ele>
        <time>2026-08-30T12:30:51Z</time>
      </trkpt>
      <trkpt lat="48.765325000" lon="9.915407000">
        <ele>740.800</ele>
        <time>2026-08-30T12:31:16Z</time>
      </trkpt>
      <trkpt lat="48.764461000" lon="9.915662000">
        <ele>752.600</ele>
        <time>2026-08-30T12:32:19Z</time>
      </trkpt>
      <trkpt lat="48.764152000" lon="9.915549000">
        <ele>754.400</ele>
        <time>2026-08-30T12:32:34Z</time>
      </trkpt>
      <trkpt lat="48.763939000" lon="9.914801000">
        <ele>754.800</ele>
        <time>2026-08-30T12:32:52Z</time>
      </trkpt>
      <trkpt lat="48.763940000" lon="9.913543000">
        <ele>757.000</ele>
        <time>2026-08-30T12:33:21Z</time>
      </trkpt>
      <trkpt lat="48.763997000" lon="9.913036000">
        <ele>758.000</ele>
        <time>2026-08-30T12:33:37Z</time>
      </trkpt>
      <trkpt lat="48.763713000" lon="9.909803000">
        <ele>763.600</ele>
        <time>2026-08-30T12:34:58Z</time>
      </trkpt>
      <trkpt lat="48.763834000" lon="9.909415000">
        <ele>764.600</ele>
        <time>2026-08-30T12:35:07Z</time>
      </trkpt>
      <trkpt lat="48.763774000" lon="9.907658000">
        <ele>765.400</ele>
        <time>2026-08-30T12:35:44Z</time>
      </trkpt>
      <trkpt lat="48.763853000" lon="9.907155000">
        <ele>764.600</ele>
        <time>2026-08-30T12:35:53Z</time>
      </trkpt>
      <trkpt lat="48.763851000" lon="9.906351000">
        <ele>761.800</ele>
        <time>2026-08-30T12:36:03Z</time>
      </trkpt>
      <trkpt lat="48.764449000" lon="9.905429000">
        <ele>755.400</ele>
        <time>2026-08-30T12:36:17Z</time>
      </trkpt>
      <trkpt lat="48.764901000" lon="9.904239000">
        <ele>747.000</ele>
        <time>2026-08-30T12:36:32Z</time>
      </trkpt>
      <trkpt lat="48.765466000" lon="9.901667000">
        <ele>725.400</ele>
        <time>2026-08-30T12:37:16Z</time>
      </trkpt>
      <trkpt lat="48.765476000" lon="9.901429000">
        <ele>710.000</ele>
        <time>2026-08-30T12:48:50Z</time>
      </trkpt>
      <trkpt lat="48.765543000" lon="9.901377000">
        <ele>709.000</ele>
        <time>2026-08-30T12:48:55Z</time>
      </trkpt>
      <trkpt lat="48.765687000" lon="9.901470000">
        <ele>705.800</ele>
        <time>2026-08-30T12:49:04Z</time>
      </trkpt>
      <trkpt lat="48.765917000" lon="9.901852000">
        <ele>701.400</ele>
        <time>2026-08-30T12:49:18Z</time>
      </trkpt>
      <trkpt lat="48.765952000" lon="9.902238000">
        <ele>700.600</ele>
        <time>2026-08-30T12:49:26Z</time>
      </trkpt>
      <trkpt lat="48.765834000" lon="9.903743000">
        <ele>701.400</ele>
        <time>2026-08-30T12:49:52Z</time>
      </trkpt>
      <trkpt lat="48.766113000" lon="9.904770000">
        <ele>696.800</ele>
        <time>2026-08-30T12:50:06Z</time>
      </trkpt>
      <trkpt lat="48.766169000" lon="9.906124000">
        <ele>693.400</ele>
        <time>2026-08-30T12:50:26Z</time>
      </trkpt>
      <trkpt lat="48.765983000" lon="9.907163000">
        <ele>694.600</ele>
        <time>2026-08-30T12:50:46Z</time>
      </trkpt>
      <trkpt lat="48.766163000" lon="9.908304000">
        <ele>689.000</ele>
        <time>2026-08-30T12:51:05Z</time>
      </trkpt>
      <trkpt lat="48.766933000" lon="9.908515000">
        <ele>685.800</ele>
        <time>2026-08-30T12:51:27Z</time>
      </trkpt>
      <trkpt lat="48.767112000" lon="9.908214000">
        <ele>682.800</ele>
        <time>2026-08-30T12:51:36Z</time>
      </trkpt>
      <trkpt lat="48.767607000" lon="9.908206000">
        <ele>676.000</ele>
        <time>2026-08-30T12:51:50Z</time>
      </trkpt>
      <trkpt lat="48.768067000" lon="9.907939000">
        <ele>667.800</ele>
        <time>2026-08-30T12:52:04Z</time>
      </trkpt>
      <trkpt lat="48.768192000" lon="9.908066000">
        <ele>665.200</ele>
        <time>2026-08-30T12:52:08Z</time>
      </trkpt>
      <trkpt lat="48.768384000" lon="9.908912000">
        <ele>659.600</ele>
        <time>2026-08-30T12:52:26Z</time>
      </trkpt>
      <trkpt lat="48.768167000" lon="9.909689000">
        <ele>665.600</ele>
        <time>2026-08-30T12:53:03Z</time>
      </trkpt>
      <trkpt lat="48.768014000" lon="9.909965000">
        <ele>668.200</ele>
        <time>2026-08-30T12:53:18Z</time>
      </trkpt>
      <trkpt lat="48.767893000" lon="9.909862000">
        <ele>669.800</ele>
        <time>2026-08-30T12:53:28Z</time>
      </trkpt>
      <trkpt lat="48.767919000" lon="9.910083000">
        <ele>670.000</ele>
        <time>2026-08-30T12:53:59Z</time>
      </trkpt>
      <trkpt lat="48.766847000" lon="9.911243000">
        <ele>684.800</ele>
        <time>2026-08-30T12:55:26Z</time>
      </trkpt>
      <trkpt lat="48.766940000" lon="9.910924000">
        <ele>689.800</ele>
        <time>2026-08-30T12:55:52Z</time>
      </trkpt>
      <trkpt lat="48.767268000" lon="9.910614000">
        <ele>687.200</ele>
        <time>2026-08-30T12:56:13Z</time>
      </trkpt>
      <trkpt lat="48.767838000" lon="9.909639000">
        <ele>676.200</ele>
        <time>2026-08-30T12:56:42Z</time>
      </trkpt>
      <trkpt lat="48.767993000" lon="9.909627000">
        <ele>673.600</ele>
        <time>2026-08-30T12:56:50Z</time>
      </trkpt>
      <trkpt lat="48.768179000" lon="9.909361000">
        <ele>668.600</ele>
        <time>2026-08-30T12:57:01Z</time>
      </trkpt>
      <trkpt lat="48.768314000" lon="9.908888000">
        <ele>664.000</ele>
        <time>2026-08-30T12:57:12Z</time>
      </trkpt>
      <trkpt lat="48.768334000" lon="9.908305000">
        <ele>660.200</ele>
        <time>2026-08-30T12:57:32Z</time>
      </trkpt>
      <trkpt lat="48.768409000" lon="9.908326000">
        <ele>659.600</ele>
        <time>2026-08-30T12:57:37Z</time>
      </trkpt>
      <trkpt lat="48.768509000" lon="9.907968000">
        <ele>655.200</ele>
        <time>2026-08-30T12:58:38Z</time>
      </trkpt>
      <trkpt lat="48.768590000" lon="9.907964000">
        <ele>654.000</ele>
        <time>2026-08-30T12:58:43Z</time>
      </trkpt>
      <trkpt lat="48.768710000" lon="9.907768000">
        <ele>650.400</ele>
        <time>2026-08-30T12:58:51Z</time>
      </trkpt>
      <trkpt lat="48.768847000" lon="9.907839000">
        <ele>647.200</ele>
        <time>2026-08-30T12:59:13Z</time>
      </trkpt>
      <trkpt lat="48.769219000" lon="9.907395000">
        <ele>639.800</ele>
        <time>2026-08-30T13:00:01Z</time>
      </trkpt>
      <trkpt lat="48.769223000" lon="9.907271000">
        <ele>637.800</ele>
        <time>2026-08-30T13:00:07Z</time>
      </trkpt>
      <trkpt lat="48.769360000" lon="9.907092000">
        <ele>634.400</ele>
        <time>2026-08-30T13:00:14Z</time>
      </trkpt>
      <trkpt lat="48.769527000" lon="9.906555000">
        <ele>626.400</ele>
        <time>2026-08-30T13:00:34Z</time>
      </trkpt>
      <trkpt lat="48.769256000" lon="9.906811000">
        <ele>626.000</ele>
        <time>2026-08-30T13:00:54Z</time>
      </trkpt>
      <trkpt lat="48.768740000" lon="9.906895000">
        <ele>626.600</ele>
        <time>2026-08-30T13:01:14Z</time>
      </trkpt>
      <trkpt lat="48.769015000" lon="9.906881000">
        <ele>626.600</ele>
        <time>2026-08-30T13:01:31Z</time>
      </trkpt>
      <trkpt lat="48.769343000" lon="9.906726000">
        <ele>626.400</ele>
        <time>2026-08-30T13:01:41Z</time>
      </trkpt>
      <trkpt lat="48.769581000" lon="9.906498000">
        <ele>626.400</ele>
        <time>2026-08-30T13:01:50Z</time>
      </trkpt>
      <trkpt lat="48.769633000" lon="9.906268000">
        <ele>624.800</ele>
        <time>2026-08-30T13:01:57Z</time>
      </trkpt>
      <trkpt lat="48.769563000" lon="9.906234000">
        <ele>621.600</ele>
        <time>2026-08-30T13:02:19Z</time>
      </trkpt>
      <trkpt lat="48.769552000" lon="9.906118000">
        <ele>619.600</ele>
        <time>2026-08-30T13:02:30Z</time>
      </trkpt>
      <trkpt lat="48.769718000" lon="9.905641000">
        <ele>613.000</ele>
        <time>2026-08-30T13:02:43Z</time>
      </trkpt>
      <trkpt lat="48.770015000" lon="9.905408000">
        <ele>609.000</ele>
        <time>2026-08-30T13:02:58Z</time>
      </trkpt>
      <trkpt lat="48.770390000" lon="9.904793000">
        <ele>600.600</ele>
        <time>2026-08-30T13:04:15Z</time>
      </trkpt>
      <trkpt lat="48.770742000" lon="9.904460000">
        <ele>594.600</ele>
        <time>2026-08-30T13:04:29Z</time>
      </trkpt>
      <trkpt lat="48.770768000" lon="9.904352000">
        <ele>591.200</ele>
        <time>2026-08-30T13:04:58Z</time>
      </trkpt>
      <trkpt lat="48.771259000" lon="9.903851000">
        <ele>585.600</ele>
        <time>2026-08-30T13:05:24Z</time>
      </trkpt>
      <trkpt lat="48.771559000" lon="9.903374000">
        <ele>579.800</ele>
        <time>2026-08-30T13:05:41Z</time>
      </trkpt>
      <trkpt lat="48.771775000" lon="9.902840000">
        <ele>572.200</ele>
        <time>2026-08-30T13:05:56Z</time>
      </trkpt>
      <trkpt lat="48.771927000" lon="9.902930000">
        <ele>569.400</ele>
        <time>2026-08-30T13:06:29Z</time>
      </trkpt>
      <trkpt lat="48.772157000" lon="9.902829000">
        <ele>571.600</ele>
        <time>2026-08-30T13:06:38Z</time>
      </trkpt>
      <trkpt lat="48.772864000" lon="9.902914000">
        <ele>577.400</ele>
        <time>2026-08-30T13:07:13Z</time>
      </trkpt>
      <trkpt lat="48.773447000" lon="9.902760000">
        <ele>575.800</ele>
        <time>2026-08-30T13:07:32Z</time>
      </trkpt>
      <trkpt lat="48.774411000" lon="9.902283000">
        <ele>575.400</ele>
        <time>2026-08-30T13:07:56Z</time>
      </trkpt>
      <trkpt lat="48.775796000" lon="9.901363000">
        <ele>574.000</ele>
        <time>2026-08-30T13:08:28Z</time>
      </trkpt>
      <trkpt lat="48.776915000" lon="9.900772000">
        <ele>575.400</ele>
        <time>2026-08-30T13:08:54Z</time>
      </trkpt>
      <trkpt lat="48.777916000" lon="9.900853000">
        <ele>581.600</ele>
        <time>2026-08-30T13:09:31Z</time>
      </trkpt>
      <trkpt lat="48.778962000" lon="9.901471000">
        <ele>588.600</ele>
        <time>2026-08-30T13:10:24Z</time>
      </trkpt>
      <trkpt lat="48.779495000" lon="9.901290000">
        <ele>579.000</ele>
        <time>2026-08-30T13:10:42Z</time>
      </trkpt>
      <trkpt lat="48.779519000" lon="9.901185000">
        <ele>571.800</ele>
        <time>2026-08-30T13:11:29Z</time>
      </trkpt>
      <trkpt lat="48.779711000" lon="9.901139000">
        <ele>571.000</ele>
        <time>2026-08-30T13:11:36Z</time>
      </trkpt>
      <trkpt lat="48.780399000" lon="9.900687000">
        <ele>560.400</ele>
        <time>2026-08-30T13:11:54Z</time>
      </trkpt>
      <trkpt lat="48.780650000" lon="9.900651000">
        <ele>555.400</ele>
        <time>2026-08-30T13:12:01Z</time>
      </trkpt>
      <trkpt lat="48.780712000" lon="9.900552000">
        <ele>553.600</ele>
        <time>2026-08-30T13:12:04Z</time>
      </trkpt>
      <trkpt lat="48.780727000" lon="9.900020000">
        <ele>547.200</ele>
        <time>2026-08-30T13:12:37Z</time>
      </trkpt>
      <trkpt lat="48.780493000" lon="9.898181000">
        <ele>520.000</ele>
        <time>2026-08-30T13:13:33Z</time>
      </trkpt>
      <trkpt lat="48.780625000" lon="9.897706000">
        <ele>512.600</ele>
        <time>2026-08-30T13:13:46Z</time>
      </trkpt>
      <trkpt lat="48.781004000" lon="9.897458000">
        <ele>502.600</ele>
        <time>2026-08-30T13:14:01Z</time>
      </trkpt>
      <trkpt lat="48.781087000" lon="9.897281000">
        <ele>498.800</ele>
        <time>2026-08-30T13:14:09Z</time>
      </trkpt>
      <trkpt lat="48.781391000" lon="9.897194000">
        <ele>496.200</ele>
        <time>2026-08-30T13:14:19Z</time>
      </trkpt>
      <trkpt lat="48.781713000" lon="9.896691000">
        <ele>491.000</ele>
        <time>2026-08-30T13:14:27Z</time>
      </trkpt>
      <trkpt lat="48.781917000" lon="9.896024000">
        <ele>485.800</ele>
        <time>2026-08-30T13:14:34Z</time>
      </trkpt>
      <trkpt lat="48.781988000" lon="9.895246000">
        <ele>481.200</ele>
        <time>2026-08-30T13:14:42Z</time>
      </trkpt>
      <trkpt lat="48.781904000" lon="9.894167000">
        <ele>474.600</ele>
        <time>2026-08-30T13:14:54Z</time>
      </trkpt>
      <trkpt lat="48.781949000" lon="9.894073000">
        <ele>473.800</ele>
        <time>2026-08-30T13:14:59Z</time>
      </trkpt>
      <trkpt lat="48.782701000" lon="9.893942000">
        <ele>470.200</ele>
        <time>2026-08-30T13:15:19Z</time>
      </trkpt>
      <trkpt lat="48.782880000" lon="9.893572000">
        <ele>466.000</ele>
        <time>2026-08-30T13:15:52Z</time>
      </trkpt>
      <trkpt lat="48.783099000" lon="9.893404000">
        <ele>461.000</ele>
        <time>2026-08-30T13:16:14Z</time>
      </trkpt>
      <trkpt lat="48.782852000" lon="9.893649000">
        <ele>465.000</ele>
        <time>2026-08-30T13:16:59Z</time>
      </trkpt>
      <trkpt lat="48.782958000" lon="9.893851000">
        <ele>465.400</ele>
        <time>2026-08-30T13:17:32Z</time>
      </trkpt>
      <trkpt lat="48.783759000" lon="9.892733000">
        <ele>461.400</ele>
        <time>2026-08-30T13:17:55Z</time>
      </trkpt>
      <trkpt lat="48.784201000" lon="9.891861000">
        <ele>458.200</ele>
        <time>2026-08-30T13:18:07Z</time>
      </trkpt>
      <trkpt lat="48.784433000" lon="9.891622000">
        <ele>456.400</ele>
        <time>2026-08-30T13:18:13Z</time>
      </trkpt>
      <trkpt lat="48.784535000" lon="9.891367000">
        <ele>454.800</ele>
        <time>2026-08-30T13:18:20Z</time>
      </trkpt>
      <trkpt lat="48.784530000" lon="9.891119000">
        <ele>454.200</ele>
        <time>2026-08-30T13:18:24Z</time>
      </trkpt>
      <trkpt lat="48.785194000" lon="9.890265000">
        <ele>450.600</ele>
        <time>2026-08-30T13:18:56Z</time>
      </trkpt>
      <trkpt lat="48.785666000" lon="9.889995000">
        <ele>447.600</ele>
        <time>2026-08-30T13:19:04Z</time>
      </trkpt>
      <trkpt lat="48.785996000" lon="9.889675000">
        <ele>444.000</ele>
        <time>2026-08-30T13:19:09Z</time>
      </trkpt>
      <trkpt lat="48.786617000" lon="9.888755000">
        <ele>443.000</ele>
        <time>2026-08-30T13:19:27Z</time>
      </trkpt>
      <trkpt lat="48.787534000" lon="9.887721000">
        <ele>439.800</ele>
        <time>2026-08-30T13:19:49Z</time>
      </trkpt>
      <trkpt lat="48.787556000" lon="9.887464000">
        <ele>439.200</ele>
        <time>2026-08-30T13:19:53Z</time>
      </trkpt>
      <trkpt lat="48.787282000" lon="9.886562000">
        <ele>438.600</ele>
        <time>2026-08-30T13:20:07Z</time>
      </trkpt>
      <trkpt lat="48.787222000" lon="9.886019000">
        <ele>437.600</ele>
        <time>2026-08-30T13:20:15Z</time>
      </trkpt>
      <trkpt lat="48.787359000" lon="9.883689000">
        <ele>432.800</ele>
        <time>2026-08-30T13:20:45Z</time>
      </trkpt>
      <trkpt lat="48.787504000" lon="9.883248000">
        <ele>431.400</ele>
        <time>2026-08-30T13:20:51Z</time>
      </trkpt>
      <trkpt lat="48.787516000" lon="9.882748000">
        <ele>430.400</ele>
        <time>2026-08-30T13:20:57Z</time>
      </trkpt>
      <trkpt lat="48.787742000" lon="9.881112000">
        <ele>427.000</ele>
        <time>2026-08-30T13:21:17Z</time>
      </trkpt>
      <trkpt lat="48.787959000" lon="9.880333000">
        <ele>423.600</ele>
        <time>2026-08-30T13:21:27Z</time>
      </trkpt>
      <trkpt lat="48.788168000" lon="9.879243000">
        <ele>422.600</ele>
        <time>2026-08-30T13:21:43Z</time>
      </trkpt>
      <trkpt lat="48.788277000" lon="9.879025000">
        <ele>422.800</ele>
        <time>2026-08-30T13:21:47Z</time>
      </trkpt>
      <trkpt lat="48.788225000" lon="9.878655000">
        <ele>423.000</ele>
        <time>2026-08-30T13:21:53Z</time>
      </trkpt>
      <trkpt lat="48.788394000" lon="9.877193000">
        <ele>424.400</ele>
        <time>2026-08-30T13:22:15Z</time>
      </trkpt>
      <trkpt lat="48.789474000" lon="9.876833000">
        <ele>426.800</ele>
        <time>2026-08-30T13:22:44Z</time>
      </trkpt>
      <trkpt lat="48.789631000" lon="9.875979000">
        <ele>425.600</ele>
        <time>2026-08-30T13:22:57Z</time>
      </trkpt>
      <trkpt lat="48.789538000" lon="9.875529000">
        <ele>425.200</ele>
        <time>2026-08-30T13:23:03Z</time>
      </trkpt>
      <trkpt lat="48.789419000" lon="9.874065000">
        <ele>425.200</ele>
        <time>2026-08-30T13:23:28Z</time>
      </trkpt>
      <trkpt lat="48.789024000" lon="9.872091000">
        <ele>422.600</ele>
        <time>2026-08-30T13:23:54Z</time>
      </trkpt>
      <trkpt lat="48.788995000" lon="9.870986000">
        <ele>421.800</ele>
        <time>2026-08-30T13:24:10Z</time>
      </trkpt>
      <trkpt lat="48.789041000" lon="9.870023000">
        <ele>423.400</ele>
        <time>2026-08-30T13:24:28Z</time>
      </trkpt>
      <trkpt lat="48.789204000" lon="9.869661000">
        <ele>423.000</ele>
        <time>2026-08-30T13:24:36Z</time>
      </trkpt>
      <trkpt lat="48.789905000" lon="9.867212000">
        <ele>417.000</ele>
        <time>2026-08-30T13:25:08Z</time>
      </trkpt>
      <trkpt lat="48.790052000" lon="9.865686000">
        <ele>416.400</ele>
        <time>2026-08-30T13:25:28Z</time>
      </trkpt>
      <trkpt lat="48.790031000" lon="9.864039000">
        <ele>415.800</ele>
        <time>2026-08-30T13:25:50Z</time>
      </trkpt>
      <trkpt lat="48.789931000" lon="9.863504000">
        <ele>414.200</ele>
        <time>2026-08-30T13:25:56Z</time>
      </trkpt>
      <trkpt lat="48.789994000" lon="9.862550000">
        <ele>415.200</ele>
        <time>2026-08-30T13:26:11Z</time>
      </trkpt>
      <trkpt lat="48.790093000" lon="9.862221000">
        <ele>415.800</ele>
        <time>2026-08-30T13:26:17Z</time>
      </trkpt>
      <trkpt lat="48.790373000" lon="9.861767000">
        <ele>415.800</ele>
        <time>2026-08-30T13:26:27Z</time>
      </trkpt>
      <trkpt lat="48.790386000" lon="9.861650000">
        <ele>416.000</ele>
        <time>2026-08-30T13:26:29Z</time>
      </trkpt>
      <trkpt lat="48.790124000" lon="9.861306000">
        <ele>417.400</ele>
        <time>2026-08-30T13:26:38Z</time>
      </trkpt>
      <trkpt lat="48.790070000" lon="9.861049000">
        <ele>417.800</ele>
        <time>2026-08-30T13:26:42Z</time>
      </trkpt>
      <trkpt lat="48.790186000" lon="9.860007000">
        <ele>419.600</ele>
        <time>2026-08-30T13:26:58Z</time>
      </trkpt>
      <trkpt lat="48.790689000" lon="9.858800000">
        <ele>420.800</ele>
        <time>2026-08-30T13:27:20Z</time>
      </trkpt>
      <trkpt lat="48.790934000" lon="9.857425000">
        <ele>421.400</ele>
        <time>2026-08-30T13:27:42Z</time>
      </trkpt>
      <trkpt lat="48.791606000" lon="9.855804000">
        <ele>417.800</ele>
        <time>2026-08-30T13:28:06Z</time>
      </trkpt>
      <trkpt lat="48.791673000" lon="9.855437000">
        <ele>416.800</ele>
        <time>2026-08-30T13:28:10Z</time>
      </trkpt>
      <trkpt lat="48.791500000" lon="9.853733000">
        <ele>417.400</ele>
        <time>2026-08-30T13:28:32Z</time>
      </trkpt>
      <trkpt lat="48.791549000" lon="9.852776000">
        <ele>418.800</ele>
        <time>2026-08-30T13:28:46Z</time>
      </trkpt>
      <trkpt lat="48.791266000" lon="9.850088000">
        <ele>420.400</ele>
        <time>2026-08-30T13:29:24Z</time>
      </trkpt>
      <trkpt lat="48.791125000" lon="9.849559000">
        <ele>420.400</ele>
        <time>2026-08-30T13:29:32Z</time>
      </trkpt>
      <trkpt lat="48.790485000" lon="9.848022000">
        <ele>417.400</ele>
        <time>2026-08-30T13:29:56Z</time>
      </trkpt>
      <trkpt lat="48.790510000" lon="9.847176000">
        <ele>416.800</ele>
        <time>2026-08-30T13:30:11Z</time>
      </trkpt>
      <trkpt lat="48.789876000" lon="9.844735000">
        <ele>419.200</ele>
        <time>2026-08-30T13:30:49Z</time>
      </trkpt>
      <trkpt lat="48.789543000" lon="9.843693000">
        <ele>420.000</ele>
        <time>2026-08-30T13:31:05Z</time>
      </trkpt>
      <trkpt lat="48.789179000" lon="9.840856000">
        <ele>419.600</ele>
        <time>2026-08-30T13:31:39Z</time>
      </trkpt>
      <trkpt lat="48.789156000" lon="9.839603000">
        <ele>420.600</ele>
        <time>2026-08-30T13:31:55Z</time>
      </trkpt>
      <trkpt lat="48.789285000" lon="9.838333000">
        <ele>420.600</ele>
        <time>2026-08-30T13:32:11Z</time>
      </trkpt>
      <trkpt lat="48.789252000" lon="9.836810000">
        <ele>421.200</ele>
        <time>2026-08-30T13:32:31Z</time>
      </trkpt>
      <trkpt lat="48.789430000" lon="9.835626000">
        <ele>421.800</ele>
        <time>2026-08-30T13:32:47Z</time>
      </trkpt>
      <trkpt lat="48.789683000" lon="9.835210000">
        <ele>422.000</ele>
        <time>2026-08-30T13:32:55Z</time>
      </trkpt>
      <trkpt lat="48.789790000" lon="9.834825000">
        <ele>422.200</ele>
        <time>2026-08-30T13:33:01Z</time>
      </trkpt>
      <trkpt lat="48.790162000" lon="9.834020000">
        <ele>422.800</ele>
        <time>2026-08-30T13:33:15Z</time>
      </trkpt>
      <trkpt lat="48.789265000" lon="9.833178000">
        <ele>417.600</ele>
        <time>2026-08-30T13:33:46Z</time>
      </trkpt>
      <trkpt lat="48.788457000" lon="9.834027000">
        <ele>414.000</ele>
        <time>2026-08-30T13:34:14Z</time>
      </trkpt>
      <trkpt lat="48.787945000" lon="9.833137000">
        <ele>405.000</ele>
        <time>2026-08-30T13:34:28Z</time>
      </trkpt>
      <trkpt lat="48.787997000" lon="9.833002000">
        <ele>403.600</ele>
        <time>2026-08-30T13:34:30Z</time>
      </trkpt>
      <trkpt lat="48.788806000" lon="9.832475000">
        <ele>402.200</ele>
        <time>2026-08-30T13:34:48Z</time>
      </trkpt>
      <trkpt lat="48.789232000" lon="9.831798000">
        <ele>401.000</ele>
        <time>2026-08-30T13:35:04Z</time>
      </trkpt>
      <trkpt lat="48.788941000" lon="9.831349000">
        <ele>394.800</ele>
        <time>2026-08-30T13:35:23Z</time>
      </trkpt>
      <trkpt lat="48.788150000" lon="9.831367000">
        <ele>388.400</ele>
        <time>2026-08-30T13:35:41Z</time>
      </trkpt>
      <trkpt lat="48.787508000" lon="9.830660000">
        <ele>378.000</ele>
        <time>2026-08-30T13:35:55Z</time>
      </trkpt>
      <trkpt lat="48.786699000" lon="9.829965000">
        <ele>366.600</ele>
        <time>2026-08-30T13:36:11Z</time>
      </trkpt>
      <trkpt lat="48.786616000" lon="9.829974000">
        <ele>365.400</ele>
        <time>2026-08-30T13:36:14Z</time>
      </trkpt>
      <trkpt lat="48.786525000" lon="9.830540000">
        <ele>364.200</ele>
        <time>2026-08-30T13:36:44Z</time>
      </trkpt>
      <trkpt lat="48.786530000" lon="9.830934000">
        <ele>365.000</ele>
        <time>2026-08-30T13:36:51Z</time>
      </trkpt>
      <trkpt lat="48.786475000" lon="9.831013000">
        <ele>364.800</ele>
        <time>2026-08-30T13:36:53Z</time>
      </trkpt>
      <trkpt lat="48.785693000" lon="9.830893000">
        <ele>359.400</ele>
        <time>2026-08-30T13:37:07Z</time>
      </trkpt>
      <trkpt lat="48.785101000" lon="9.830539000">
        <ele>356.400</ele>
        <time>2026-08-30T13:37:21Z</time>
      </trkpt>
      <trkpt lat="48.785033000" lon="9.830324000">
        <ele>355.800</ele>
        <time>2026-08-30T13:37:25Z</time>
      </trkpt>
      <trkpt lat="48.785860000" lon="9.827549000">
        <ele>352.800</ele>
        <time>2026-08-30T13:38:01Z</time>
      </trkpt>
      <trkpt lat="48.786070000" lon="9.827247000">
        <ele>352.800</ele>
        <time>2026-08-30T13:38:07Z</time>
      </trkpt>
      <trkpt lat="48.786294000" lon="9.826544000">
        <ele>352.200</ele>
        <time>2026-08-30T13:38:17Z</time>
      </trkpt>
      <trkpt lat="48.786601000" lon="9.826652000">
        <ele>353.000</ele>
        <time>2026-08-30T13:38:25Z</time>
      </trkpt>
      <trkpt lat="48.786920000" lon="9.825732000">
        <ele>353.400</ele>
        <time>2026-08-30T13:38:41Z</time>
      </trkpt>
      <trkpt lat="48.786840000" lon="9.825092000">
        <ele>351.800</ele>
        <time>2026-08-30T13:38:51Z</time>
      </trkpt>
      <trkpt lat="48.787218000" lon="9.824410000">
        <ele>350.600</ele>
        <time>2026-08-30T13:39:03Z</time>
      </trkpt>
      <trkpt lat="48.787254000" lon="9.823332000">
        <ele>350.400</ele>
        <time>2026-08-30T13:39:20Z</time>
      </trkpt>
      <trkpt lat="48.787147000" lon="9.823309000">
        <ele>349.800</ele>
        <time>2026-08-30T13:39:23Z</time>
      </trkpt>
      <trkpt lat="48.787106000" lon="9.823192000">
        <ele>349.400</ele>
        <time>2026-08-30T13:39:26Z</time>
      </trkpt>
      <trkpt lat="48.787848000" lon="9.820734000">
        <ele>346.800</ele>
        <time>2026-08-30T13:40:02Z</time>
      </trkpt>
      <trkpt lat="48.788962000" lon="9.815250000">
        <ele>343.200</ele>
        <time>2026-08-30T13:41:18Z</time>
      </trkpt>
      <trkpt lat="48.789223000" lon="9.814284000">
        <ele>343.000</ele>
        <time>2026-08-30T13:41:32Z</time>
      </trkpt>
      <trkpt lat="48.789301000" lon="9.814220000">
        <ele>343.000</ele>
        <time>2026-08-30T13:41:34Z</time>
      </trkpt>
      <trkpt lat="48.790046000" lon="9.814406000">
        <ele>342.800</ele>
        <time>2026-08-30T13:41:48Z</time>
      </trkpt>
      <trkpt lat="48.790796000" lon="9.814945000">
        <ele>342.200</ele>
        <time>2026-08-30T13:42:02Z</time>
      </trkpt>
      <trkpt lat="48.790975000" lon="9.814898000">
        <ele>342.000</ele>
        <time>2026-08-30T13:42:06Z</time>
      </trkpt>
      <trkpt lat="48.791589000" lon="9.813781000">
        <ele>341.600</ele>
        <time>2026-08-30T13:42:24Z</time>
      </trkpt>
      <trkpt lat="48.792833000" lon="9.810581000">
        <ele>338.200</ele>
        <time>2026-08-30T13:43:08Z</time>
      </trkpt>
      <trkpt lat="48.793610000" lon="9.807309000">
        <ele>337.800</ele>
        <time>2026-08-30T13:43:50Z</time>
      </trkpt>
      <trkpt lat="48.793792000" lon="9.806775000">
        <ele>337.200</ele>
        <time>2026-08-30T13:43:58Z</time>
      </trkpt>
      <trkpt lat="48.795050000" lon="9.803913000">
        <ele>334.000</ele>
        <time>2026-08-30T13:44:40Z</time>
      </trkpt>
      <trkpt lat="48.795426000" lon="9.802902000">
        <ele>333.000</ele>
        <time>2026-08-30T13:44:52Z</time>
      </trkpt>
      <trkpt lat="48.796263000" lon="9.801121000">
        <ele>333.000</ele>
        <time>2026-08-30T13:45:20Z</time>
      </trkpt>
      <trkpt lat="48.796344000" lon="9.801083000">
        <ele>333.600</ele>
        <time>2026-08-30T13:45:23Z</time>
      </trkpt>
      <trkpt lat="48.796482000" lon="9.801187000">
        <ele>335.200</ele>
        <time>2026-08-30T13:45:30Z</time>
      </trkpt>
      <trkpt lat="48.797628000" lon="9.800020000">
        <ele>334.800</ele>
        <time>2026-08-30T13:46:04Z</time>
      </trkpt>
      <trkpt lat="48.797845000" lon="9.799950000">
        <ele>334.200</ele>
        <time>2026-08-30T13:46:08Z</time>
      </trkpt>
      <trkpt lat="48.798636000" lon="9.801058000">
        <ele>339.000</ele>
        <time>2026-08-30T13:46:44Z</time>
      </trkpt>
      <trkpt lat="48.798865000" lon="9.800570000">
        <ele>335.600</ele>
        <time>2026-08-30T13:47:15Z</time>
      </trkpt>
      <trkpt lat="48.798948000" lon="9.800551000">
        <ele>335.800</ele>
        <time>2026-08-30T13:47:19Z</time>
      </trkpt>
      <trkpt lat="48.798945000" lon="9.800429000">
        <ele>335.800</ele>
        <time>2026-08-30T13:47:22Z</time>
      </trkpt>
      <trkpt lat="48.799039000" lon="9.800619000">
        <ele>335.000</ele>
        <time>2026-08-30T13:47:32Z</time>
      </trkpt>
      <trkpt lat="48.799023000" lon="9.800369000">
        <ele>333.800</ele>
        <time>2026-08-30T13:47:40Z</time>
      </trkpt>
      <trkpt lat="48.799129000" lon="9.800570000">
        <ele>333.000</ele>
        <time>2026-08-30T13:47:53Z</time>
      </trkpt>
      <trkpt lat="48.799092000" lon="9.799902000">
        <ele>330.600</ele>
        <time>2026-08-30T13:48:09Z</time>
      </trkpt>
      <trkpt lat="48.798780000" lon="9.799098000">
        <ele>327.200</ele>
        <time>2026-08-30T13:48:21Z</time>
      </trkpt>
      <trkpt lat="48.798778000" lon="9.798936000">
        <ele>326.800</ele>
        <time>2026-08-30T13:48:24Z</time>
      </trkpt>
      <trkpt lat="48.798844000" lon="9.798827000">
        <ele>326.200</ele>
        <time>2026-08-30T13:48:27Z</time>
      </trkpt>
      <trkpt lat="48.799355000" lon="9.798615000">
        <ele>326.800</ele>
        <time>2026-08-30T13:48:45Z</time>
      </trkpt>
      <trkpt lat="48.799654000" lon="9.798387000">
        <ele>327.000</ele>
        <time>2026-08-30T13:48:57Z</time>
      </trkpt>
      <trkpt lat="48.800076000" lon="9.797755000">
        <ele>325.600</ele>
        <time>2026-08-30T13:49:20Z</time>
      </trkpt>
      <trkpt lat="48.800376000" lon="9.797493000">
        <ele>325.800</ele>
        <time>2026-08-30T13:49:33Z</time>
      </trkpt>
      <trkpt lat="48.800376000" lon="9.797375000">
        <ele>325.800</ele>
        <time>2026-08-30T13:49:37Z</time>
      </trkpt>
      <trkpt lat="48.800305000" lon="9.797305000">
        <ele>325.800</ele>
        <time>2026-08-30T13:49:41Z</time>
      </trkpt>
      <trkpt lat="48.800120000" lon="9.797498000">
        <ele>326.200</ele>
        <time>2026-08-30T13:54:33Z</time>
      </trkpt>
      <trkpt lat="48.799986000" lon="9.797400000">
        <ele>326.200</ele>
        <time>2026-08-30T13:54:49Z</time>
      </trkpt>
      <trkpt lat="48.799959000" lon="9.797509000">
        <ele>326.400</ele>
        <time>2026-08-30T14:15:48Z</time>
      </trkpt>
      <trkpt lat="48.799877000" lon="9.797497000">
        <ele>326.400</ele>
        <time>2026-08-30T14:15:53Z</time>
      </trkpt>
      <trkpt lat="48.799695000" lon="9.796471000">
        <ele>328.400</ele>
        <time>2026-08-30T14:16:17Z</time>
      </trkpt>
    </trkseg>
  </trk>
</gpx>
